Time;durP1;ratioP1;P1;durP2;ratioP2;P2;SDS_P1;SDS_P2;PMS_P1;PMS_P2;Temp;Humidity;BMP_temperature;BMP_pressure;BME280_temperature;BME280_humidity;BME280_pressure;Samples;Min_cycle;Max_cycle;Signal;HPM_P1;HPM_P2
2023/06/28 00:00:04;;;;;;;10.07;3.53;;;14.70;99.90;;;;;;5065258;28;20420;-69
2023/06/28 00:02:35;;;;;;;3.80;3.20;;;14.70;99.90;;;;;;5069451;28;20151;-66
2023/06/28 00:05:03;;;;;;;6.90;2.80;;;14.70;99.90;;;;;;5069379;28;20360;-66
2023/06/28 00:07:30;;;;;;;10.40;3.50;;;14.70;99.90;;;;;;5068848;28;20470;-67
2023/06/28 00:09:55;;;;;;;4.23;2.80;;;14.70;99.90;;;;;;5068701;28;20461;-67
2023/06/28 00:12:21;;;;;;;7.63;3.00;;;14.60;99.90;;;;;;5064015;28;20403;-67
2023/06/28 00:14:47;;;;;;;4.50;2.67;;;14.60;99.90;;;;;;5049247;28;20195;-66
2023/06/28 00:17:13;;;;;;;3.10;2.80;;;14.60;99.90;;;;;;5048314;28;20410;-66
2023/06/28 00:19:47;;;;;;;3.50;3.10;;;14.60;99.90;;;;;;5049158;28;20415;-67
2023/06/28 00:22:16;;;;;;;3.90;3.10;;;14.60;99.90;;;;;;5048445;28;20515;-67
2023/06/28 00:24:42;;;;;;;5.10;3.00;;;14.60;99.90;;;;;;5048585;28;20409;-66
2023/06/28 00:27:11;;;;;;;4.27;3.20;;;14.60;99.90;;;;;;5048427;28;20666;-67
2023/06/28 00:29:37;;;;;;;3.40;3.10;;;14.60;99.90;;;;;;5048792;28;20211;-66
2023/06/28 00:32:03;;;;;;;6.13;4.33;;;14.60;99.90;;;;;;5048601;28;20406;-67
2023/06/28 00:34:29;;;;;;;4.37;3.40;;;14.60;99.90;;;;;;5067465;28;20443;-67
2023/06/28 00:36:55;;;;;;;6.23;3.23;;;14.60;99.90;;;;;;5068779;28;20368;-67
2023/06/28 00:39:20;;;;;;;3.07;2.87;;;14.60;99.90;;;;;;5068678;28;20151;-66
2023/06/28 00:41:46;;;;;;;7.33;3.10;;;14.50;99.90;;;;;;5066610;28;20182;-67
2023/06/28 00:44:12;;;;;;;10.40;3.40;;;14.50;99.90;;;;;;5067638;28;20166;-67
2023/06/28 00:46:37;;;;;;;7.87;3.87;;;14.40;99.90;;;;;;5068212;28;20182;-67
2023/06/28 00:49:04;;;;;;;7.90;3.57;;;14.40;99.90;;;;;;5068327;28;20159;-66
2023/06/28 00:51:31;;;;;;;11.60;4.20;;;14.40;99.90;;;;;;5067889;28;20218;-66
2023/06/28 00:53:58;;;;;;;3.33;3.10;;;14.30;99.90;;;;;;5068358;28;20506;-66
2023/06/28 00:56:24;;;;;;;6.53;3.30;;;14.30;99.90;;;;;;5065449;28;20372;-67
2023/06/28 00:58:53;;;;;;;6.80;3.70;;;14.30;99.90;;;;;;5048383;28;20378;-67
2023/06/28 01:01:19;;;;;;;8.97;3.13;;;14.30;99.90;;;;;;5047423;28;20378;-66
2023/06/28 01:03:45;;;;;;;2.87;2.67;;;14.20;99.90;;;;;;5048188;28;20391;-66
2023/06/28 01:06:12;;;;;;;5.40;3.20;;;14.20;99.90;;;;;;5047920;28;20175;-67
2023/06/28 01:08:42;;;;;;;7.20;3.50;;;14.20;99.90;;;;;;5048199;28;20337;-67
2023/06/28 01:11:09;;;;;;;3.60;3.30;;;14.10;99.90;;;;;;5048712;28;20341;-66
2023/06/28 01:13:35;;;;;;;4.87;2.90;;;14.10;99.90;;;;;;5067804;28;20683;-67
2023/06/28 01:16:02;;;;;;;3.67;3.27;;;14.10;99.90;;;;;;5068068;28;20437;-66
2023/06/28 01:18:28;;;;;;;6.70;3.20;;;14.10;99.90;;;;;;5067476;28;20435;-67
2023/06/28 01:20:54;;;;;;;6.03;3.20;;;14.00;99.90;;;;;;5067141;28;20365;-67
2023/06/28 01:23:25;;;;;;;4.40;4.10;;;14.00;99.90;;;;;;5067502;28;20427;-67
2023/06/28 01:25:51;;;;;;;5.67;3.17;;;14.00;99.90;;;;;;5066992;28;20401;-66
2023/06/28 01:28:19;;;;;;;10.60;3.67;;;14.00;99.90;;;;;;5067840;28;20594;-68
2023/06/28 01:30:48;;;;;;;6.03;4.00;;;14.00;99.90;;;;;;5067137;28;20377;-68
2023/06/28 01:33:15;;;;;;;2.63;2.50;;;14.00;99.90;;;;;;5067678;28;20386;-67
2023/06/28 01:35:41;;;;;;;5.90;3.20;;;14.00;99.90;;;;;;5067399;28;20386;-67
2023/06/28 01:38:08;;;;;;;6.70;3.53;;;14.00;99.90;;;;;;5067815;28;20344;-66
2023/06/28 01:40:36;;;;;;;8.47;3.53;;;13.90;99.90;;;;;;5046589;28;20409;-66
2023/06/28 01:43:06;;;;;;;5.93;4.00;;;13.90;99.90;;;;;;5047512;28;20405;-67
2023/06/28 01:45:35;;;;;;;8.00;3.30;;;13.90;99.90;;;;;;5047575;28;20365;-67
2023/06/28 01:48:02;;;;;;;3.50;3.20;;;13.90;99.90;;;;;;5047773;28;20422;-66
2023/06/28 01:50:30;;;;;;;5.83;3.67;;;13.90;99.90;;;;;;5047089;28;20618;-67
2023/06/28 01:53:02;;;;;;;7.87;3.63;;;13.90;99.90;;;;;;5061775;28;20436;-68
2023/06/28 01:55:28;;;;;;;6.30;4.07;;;13.90;99.90;;;;;;5047397;28;20399;-67
2023/06/28 01:57:54;;;;;;;3.20;2.70;;;13.80;99.90;;;;;;5047705;28;20393;-66
2023/06/28 02:00:20;;;;;;;6.70;4.80;;;13.80;99.90;;;;;;5046607;28;20610;-66
2023/06/28 02:02:46;;;;;;;5.90;3.00;;;13.70;99.90;;;;;;5047546;28;20198;-67
2023/06/28 02:05:12;;;;;;;4.70;3.30;;;13.70;99.90;;;;;;5047432;28;20379;-67
2023/06/28 02:07:38;;;;;;;3.43;3.07;;;13.70;99.90;;;;;;5046506;28;20295;-67
2023/06/28 02:10:04;;;;;;;3.13;2.70;;;13.60;99.90;;;;;;5047272;28;20438;-71
2023/06/28 02:12:30;;;;;;;3.70;3.40;;;13.60;99.90;;;;;;5046239;28;20148;-68
2023/06/28 02:14:56;;;;;;;9.37;3.80;;;13.60;99.90;;;;;;5047265;28;20398;-67
2023/06/28 02:17:22;;;;;;;4.13;3.07;;;13.60;99.90;;;;;;5047190;28;20202;-67
2023/06/28 02:19:48;;;;;;;4.00;3.00;;;13.60;99.90;;;;;;5050082;28;20271;-71
2023/06/28 02:22:15;;;;;;;3.33;2.87;;;13.60;99.90;;;;;;5062849;28;20232;-66
2023/06/28 02:24:41;;;;;;;5.63;2.93;;;13.50;99.90;;;;;;5067138;28;20451;-67
2023/06/28 02:27:08;;;;;;;3.40;3.10;;;13.50;99.90;;;;;;5067251;28;20558;-67
2023/06/28 02:29:35;;;;;;;7.93;3.43;;;13.50;99.90;;;;;;5069129;28;20497;-67
2023/06/28 02:32:00;;;;;;;7.93;3.77;;;13.50;99.90;;;;;;5070228;28;20602;-67
2023/06/28 02:34:26;;;;;;;5.33;3.30;;;13.50;99.90;;;;;;5056889;28;20426;-67
2023/06/28 02:36:52;;;;;;;6.60;3.50;;;13.50;99.90;;;;;;5050561;28;20167;-66
2023/06/28 02:39:18;;;;;;;5.83;5.20;;;13.50;99.90;;;;;;5054819;28;20166;-67
2023/06/28 02:41:44;;;;;;;3.97;2.90;;;13.50;99.90;;;;;;5050328;28;20436;-66
2023/06/28 02:44:09;;;;;;;4.57;3.20;;;13.50;1.00;;;;;;5050850;28;20167;-67
2023/06/28 02:46:35;;;;;;;3.73;3.00;;;13.50;1.00;;;;;;5058422;28;20318;-67
2023/06/28 02:49:01;;;;;;;3.20;3.00;;;13.50;1.00;;;;;;5070558;28;20150;-66
2023/06/28 02:51:26;;;;;;;3.67;3.10;;;13.50;1.00;;;;;;5066210;28;20230;-67
2023/06/28 02:53:52;;;;;;;5.17;3.07;;;13.50;1.00;;;;;;5050647;28;20164;-67
2023/06/28 02:56:18;;;;;;;5.30;3.67;;;13.60;1.00;;;;;;5050690;28;20152;-66
2023/06/28 02:58:44;;;;;;;3.50;3.20;;;13.60;1.00;;;;;;5049832;28;20151;-66
2023/06/28 03:01:10;;;;;;;9.13;3.70;;;13.60;1.00;;;;;;5063906;28;20186;-66
2023/06/28 03:03:38;;;;;;;7.43;4.40;;;13.60;1.00;;;;;;5069802;28;20400;-67
2023/06/28 03:06:05;;;;;;;4.13;3.17;;;13.60;1.00;;;;;;5070649;28;20158;-67
2023/06/28 03:08:31;;;;;;;13.90;3.03;;;13.60;1.00;;;;;;5070219;28;20381;-67
2023/06/28 03:10:56;;;;;;;2.77;2.57;;;13.60;1.00;;;;;;5069211;28;20431;-67
2023/06/28 03:13:22;;;;;;;6.80;3.10;;;13.60;1.00;;;;;;5053829;28;20184;-66
2023/06/28 03:15:48;;;;;;;3.93;3.63;;;13.60;1.00;;;;;;5050394;28;20152;-67
2023/06/28 03:18:13;;;;;;;4.37;3.30;;;13.60;1.00;;;;;;5050244;28;20148;-67
2023/06/28 03:20:40;;;;;;;4.40;2.63;;;13.70;1.00;;;;;;5049580;28;20376;-67
2023/06/28 03:23:05;;;;;;;6.73;4.00;;;13.70;1.00;;;;;;5062434;28;20250;-66
2023/06/28 03:25:31;;;;;;;5.10;3.20;;;13.70;1.00;;;;;;5070208;28;20396;-67
2023/06/28 03:27:57;;;;;;;19.67;5.00;;;13.70;1.00;;;;;;5069328;28;20275;-68
2023/06/28 03:30:22;;;;;;;4.47;3.37;;;13.70;1.00;;;;;;5068519;28;20154;-66
2023/06/28 03:32:48;;;;;;;10.47;3.37;;;13.70;1.00;;;;;;5070014;28;20372;-67
2023/06/28 03:35:14;;;;;;;5.20;3.10;;;13.70;1.00;;;;;;5070029;28;20208;-66
2023/06/28 03:37:47;;;;;;;5.13;4.27;;;13.70;1.00;;;;;;5057321;28;20275;-67
2023/06/28 03:40:15;;;;;;;6.90;3.70;;;13.70;1.00;;;;;;5048391;28;20406;-67
2023/06/28 03:42:40;;;;;;;3.47;3.20;;;13.80;1.00;;;;;;5065739;28;20383;-67
2023/06/28 03:45:07;;;;;;;3.87;3.50;;;13.80;1.00;;;;;;5051806;28;20441;-67
2023/06/28 03:47:33;;;;;;;4.43;3.50;;;13.80;1.00;;;;;;5049348;28;20179;-67
2023/06/28 03:49:58;;;;;;;9.60;4.60;;;13.90;1.00;;;;;;5049434;28;20424;-67
2023/06/28 03:52:24;;;;;;;3.70;3.23;;;13.90;1.00;;;;;;5049019;28;20172;-67
2023/06/28 03:54:50;;;;;;;4.53;3.43;;;13.90;1.00;;;;;;5048853;28;20409;-67
2023/06/28 03:57:15;;;;;;;5.27;3.50;;;14.00;1.00;;;;;;5049642;28;20222;-67
2023/06/28 03:59:41;;;;;;;7.00;3.90;;;14.00;1.00;;;;;;5049568;28;20147;-68
2023/06/28 04:02:07;;;;;;;3.60;3.30;;;14.00;1.00;;;;;;5048540;28;20360;-67
2023/06/28 04:04:33;;;;;;;6.03;3.33;;;14.10;1.00;;;;;;5049049;28;20394;-67
2023/06/28 04:07:02;;;;;;;4.47;3.57;;;14.10;1.00;;;;;;5058675;28;21199;-66
2023/06/28 04:09:28;;;;;;;4.90;3.53;;;14.20;1.00;;;;;;5069347;28;20373;-67
2023/06/28 04:11:54;;;;;;;5.20;3.43;;;14.20;1.00;;;;;;5068746;28;20388;-67
2023/06/28 04:14:19;;;;;;;6.27;3.53;;;14.20;1.00;;;;;;5069250;28;20389;-66
2023/06/28 04:16:45;;;;;;;4.30;3.47;;;14.30;1.00;;;;;;5069043;28;20155;-67
2023/06/28 04:19:11;;;;;;;8.27;5.33;;;14.30;1.00;;;;;;5069206;28;20154;-67
2023/06/28 04:21:37;;;;;;;8.90;3.30;;;14.40;1.00;;;;;;5058116;28;20163;-66
2023/06/28 04:24:02;;;;;;;4.90;3.40;;;14.40;1.00;;;;;;5048802;28;20191;-67
2023/06/28 04:26:28;;;;;;;10.87;3.53;;;14.50;1.00;;;;;;5048468;28;20239;-67
2023/06/28 04:28:54;;;;;;;4.77;3.80;;;14.50;1.00;;;;;;5048186;28;20506;-67
2023/06/28 04:31:19;;;;;;;8.80;3.60;;;14.50;1.00;;;;;;5047433;28;20323;-67
2023/06/28 04:33:46;;;;;;;5.53;3.77;;;14.60;1.00;;;;;;5058362;28;20237;-67
2023/06/28 04:36:12;;;;;;;8.67;4.03;;;14.70;1.00;;;;;;5048798;28;20383;-67
2023/06/28 04:38:39;;;;;;;8.60;3.40;;;14.70;1.00;;;;;;5048401;28;20386;-67
2023/06/28 04:41:05;;;;;;;7.93;4.30;;;14.80;1.00;;;;;;5047811;28;20383;-67
2023/06/28 04:43:38;;;;;;;6.97;3.30;;;14.80;1.00;;;;;;5048682;28;20425;-66
2023/06/28 04:46:04;;;;;;;4.47;3.37;;;14.90;1.00;;;;;;5048206;28;20418;-66
2023/06/28 04:48:29;;;;;;;8.03;4.10;;;14.90;1.00;;;;;;5048514;28;20477;-67
2023/06/28 04:50:55;;;;;;;6.13;3.23;;;15.00;1.00;;;;;;5046850;28;20281;-66
2023/06/28 04:53:21;;;;;;;3.47;2.97;;;15.00;1.00;;;;;;5047963;28;20160;-68
2023/06/28 04:55:48;;;;;;;11.80;3.50;;;15.10;1.00;;;;;;5048477;28;20163;-67
2023/06/28 04:58:14;;;;;;;4.27;3.40;;;15.20;1.00;;;;;;5048152;28;20147;-67
2023/06/28 05:00:39;;;;;;;3.43;3.13;;;15.20;1.00;;;;;;5052080;28;20693;-67
2023/06/28 05:03:05;;;;;;;7.77;2.90;;;15.30;1.00;;;;;;5068102;28;20397;-66
2023/06/28 05:05:31;;;;;;;9.63;3.10;;;15.30;1.00;;;;;;5068150;28;20148;-67
2023/06/28 05:07:59;;;;;;;7.63;2.67;;;15.30;1.00;;;;;;5068282;28;20174;-66
2023/06/28 05:10:25;;;;;;;9.57;3.07;;;15.40;1.00;;;;;;5067556;28;20182;-67
2023/06/28 05:12:51;;;;;;;7.73;2.70;;;15.50;1.00;;;;;;5068059;28;20697;-67
2023/06/28 05:15:20;;;;;;;12.20;2.93;;;15.60;1.00;;;;;;5062984;28;20403;-66
2023/06/28 05:17:46;;;;;;;10.40;4.17;;;15.60;1.00;;;;;;5046808;28;20406;-66
2023/06/28 05:20:12;;;;;;;6.70;3.20;;;15.60;1.00;;;;;;5054862;28;20494;-67
2023/06/28 05:22:46;;;;;;;11.40;3.20;;;15.70;1.00;;;;;;5067915;28;20381;-67
2023/06/28 05:25:12;;;;;;;3.43;3.07;;;15.80;1.00;;;;;;5067907;28;20159;-66
2023/06/28 05:27:37;;;;;;;6.40;3.00;;;15.80;1.00;;;;;;5063995;28;20449;-67
2023/06/28 05:30:04;;;;;;;6.80;5.07;;;15.90;1.00;;;;;;5046916;28;20151;-70
2023/06/28 05:32:30;;;;;;;9.10;3.50;;;16.00;1.00;;;;;;5047950;28;20190;-67
2023/06/28 05:34:55;;;;;;;9.63;3.20;;;16.00;1.00;;;;;;5047275;28;20387;-67
2023/06/28 05:37:21;;;;;;;5.77;3.50;;;16.10;1.00;;;;;;5046818;28;20151;-67
2023/06/28 05:39:47;;;;;;;7.90;3.90;;;16.10;1.00;;;;;;5047820;28;20175;-67
2023/06/28 05:42:13;;;;;;;10.27;3.73;;;16.20;1.00;;;;;;5047541;28;20165;-67
2023/06/28 05:44:38;;;;;;;5.10;3.30;;;16.20;1.00;;;;;;5067463;28;20401;-66
2023/06/28 05:47:04;;;;;;;6.50;3.67;;;16.30;1.00;;;;;;5067496;28;20353;-65
2023/06/28 05:49:31;;;;;;;6.63;2.93;;;16.40;1.00;;;;;;5067648;28;20154;-65
2023/06/28 05:51:57;;;;;;;4.97;3.17;;;16.40;1.00;;;;;;5049355;28;20405;-65
2023/06/28 05:54:23;;;;;;;6.27;3.17;;;16.50;1.00;;;;;;5058272;28;20399;-65
2023/06/28 05:56:49;;;;;;;6.80;3.13;;;16.60;1.00;;;;;;5047232;28;20379;-65
2023/06/28 05:59:14;;;;;;;12.80;3.70;;;16.60;1.00;;;;;;5059693;28;20224;-65
2023/06/28 06:01:40;;;;;;;4.60;2.57;;;16.60;1.00;;;;;;5052929;28;20186;-65
2023/06/28 06:04:06;;;;;;;5.47;2.17;;;16.70;1.00;;;;;;5050488;28;20174;-65
2023/06/28 06:06:31;;;;;;;5.83;3.20;;;16.70;1.00;;;;;;5051708;28;20175;-65
2023/06/28 06:08:57;;;;;;;5.90;3.20;;;16.70;1.00;;;;;;5051538;28;20152;-67
2023/06/28 06:11:23;;;;;;;5.73;3.80;;;16.80;1.00;;;;;;5050490;28;20148;-65
2023/06/28 06:13:48;;;;;;;9.53;5.17;;;16.90;1.00;;;;;;5051088;28;20171;-66
2023/06/28 06:16:14;;;;;;;7.00;2.87;;;17.00;1.00;;;;;;5051099;28;20360;-65
2023/06/28 06:18:42;;;;;;;10.77;3.10;;;17.00;1.00;;;;;;5051412;28;20151;-65
2023/06/28 06:21:07;;;;;;;3.87;2.47;;;17.10;1.00;;;;;;5049773;28;20215;-65
2023/06/28 06:23:33;;;;;;;10.07;3.43;;;17.10;1.00;;;;;;5059902;28;20715;-65
2023/06/28 06:25:59;;;;;;;6.43;2.90;;;17.20;1.00;;;;;;5071092;28;20151;-66
2023/06/28 06:28:24;;;;;;;2.70;2.33;;;17.40;1.00;;;;;;5071024;28;20166;-65
2023/06/28 06:30:50;;;;;;;7.20;2.83;;;17.40;1.00;;;;;;5070161;28;20255;-65
2023/06/28 06:33:16;;;;;;;3.30;3.00;;;17.40;99.90;;;;;;5070984;28;20217;-65
2023/06/28 06:35:42;;;;;;;9.87;3.20;;;17.40;99.90;;;;;;5051767;28;20291;-65
2023/06/28 06:38:08;;;;;;;6.83;3.20;;;17.40;99.90;;;;;;5050740;28;20186;-65
2023/06/28 06:40:33;;;;;;;5.90;2.93;;;17.50;99.90;;;;;;5061408;28;20166;-65
2023/06/28 06:42:59;;;;;;;7.77;2.60;;;17.60;99.90;;;;;;5070769;28;20653;-67
2023/06/28 06:45:25;;;;;;;6.13;3.00;;;17.70;99.90;;;;;;5070552;28;20177;-66
2023/06/28 06:47:50;;;;;;;7.20;3.67;;;17.80;99.90;;;;;;5070394;28;20387;-66
2023/06/28 06:50:18;;;;;;;9.90;2.87;;;17.90;99.90;;;;;;5069092;28;20163;-67
2023/06/28 06:52:44;;;;;;;9.37;3.50;;;18.00;99.90;;;;;;5069907;28;20151;-67
2023/06/28 06:55:10;;;;;;;3.00;2.80;;;18.00;99.90;;;;;;5069238;28;20413;-66
2023/06/28 06:57:36;;;;;;;10.17;3.47;;;18.10;99.90;;;;;;5070524;28;20381;-66
2023/06/28 07:00:04;;;;;;;4.30;2.20;;;18.20;99.90;;;;;;5070566;28;20181;-66
2023/06/28 07:02:29;;;;;;;4.57;2.27;;;18.00;99.90;;;;;;5070245;28;20158;-68
2023/06/28 07:04:55;;;;;;;3.13;2.33;;;18.00;99.90;;;;;;5069700;28;20413;-66
2023/06/28 07:07:21;;;;;;;6.27;3.80;;;18.00;99.90;;;;;;5070049;28;20279;-68
2023/06/28 07:09:46;;;;;;;6.47;2.37;;;18.10;99.90;;;;;;5059097;28;20425;-67
2023/06/28 07:12:12;;;;;;;7.10;2.67;;;18.30;99.90;;;;;;5049740;28;20156;-66
2023/06/28 07:14:38;;;;;;;4.20;2.27;;;18.40;99.90;;;;;;5058432;28;20178;-67
2023/06/28 07:17:04;;;;;;;5.10;2.40;;;18.60;99.90;;;;;;5070307;28;20162;-66
2023/06/28 07:19:29;;;;;;;2.93;2.30;;;18.80;99.90;;;;;;5070443;28;20302;-67
2023/06/28 07:21:55;;;;;;;6.10;2.77;;;18.90;99.90;;;;;;5061634;28;20171;-66
2023/06/28 07:24:21;;;;;;;2.93;2.70;;;19.10;99.90;;;;;;5048966;28;20280;-66
2023/06/28 07:26:46;;;;;;;3.57;2.00;;;19.30;99.90;;;;;;5049026;28;20187;-66
2023/06/28 07:29:12;;;;;;;5.00;1.63;;;19.30;99.90;;;;;;5049765;28;20152;-67
2023/06/28 07:31:38;;;;;;;4.90;1.60;;;19.30;99.90;;;;;;5049017;28;20162;-67
2023/06/28 07:34:06;;;;;;;5.83;2.70;;;19.20;99.90;;;;;;5049721;28;20160;-66
2023/06/28 07:36:32;;;;;;;8.77;2.10;;;19.00;99.90;;;;;;5049604;28;20291;-66
2023/06/28 07:38:58;;;;;;;3.83;2.90;;;18.90;99.90;;;;;;5049251;28;20379;-66
2023/06/28 07:41:24;;;;;;;4.73;2.40;;;19.00;99.90;;;;;;5048579;28;20460;-67
2023/06/28 07:43:49;;;;;;;2.63;1.80;;;19.10;99.90;;;;;;5049361;28;20474;-66
2023/06/28 07:46:16;;;;;;;4.60;2.60;;;19.20;99.90;;;;;;5048924;28;20167;-67
2023/06/28 07:48:41;;;;;;;4.50;1.63;;;19.20;99.90;;;;;;5050659;28;20404;-64
2023/06/28 07:51:07;;;;;;;2.30;1.70;;;19.30;99.90;;;;;;5068608;28;20376;-65
2023/06/28 07:53:33;;;;;;;4.07;1.90;;;19.50;99.90;;;;;;5052809;28;20186;-64
2023/06/28 07:56:00;;;;;;;2.83;1.80;;;19.60;99.90;;;;;;5048807;28;20379;-65
2023/06/28 07:58:25;;;;;;;9.93;2.00;;;19.60;99.90;;;;;;5049107;28;20457;-65
2023/06/28 08:00:51;;;;;;;2.67;1.70;;;19.60;99.90;;;;;;5048367;28;20417;-63
2023/06/28 08:03:17;;;;;;;1.93;1.77;;;19.70;99.90;;;;;;5048358;28;20344;-65
2023/06/28 08:05:44;;;;;;;8.47;2.10;;;19.90;99.90;;;;;;5057683;28;20638;-66
2023/06/28 08:08:09;;;;;;;2.70;1.60;;;20.10;99.90;;;;;;5068990;28;20174;-68
2023/06/28 08:10:35;;;;;;;9.73;3.33;;;20.30;99.90;;;;;;5068492;28;20484;-67
2023/06/28 08:13:01;;;;;;;6.70;2.43;;;20.40;99.90;;;;;;5068819;28;20248;-66
2023/06/28 08:15:26;;;;;;;6.20;2.40;;;20.30;99.90;;;;;;5068553;28;20161;-66
2023/06/28 08:17:52;;;;;;;2.10;1.77;;;20.40;99.90;;;;;;5056442;28;20167;-66
2023/06/28 08:20:18;;;;;;;4.67;1.50;;;20.40;99.90;;;;;;5062114;28;20162;-67
2023/06/28 08:22:44;;;;;;;2.43;1.23;;;20.50;99.90;;;;;;5069007;28;20197;-69
2023/06/28 08:25:09;;;;;;;5.47;1.77;;;20.70;99.90;;;;;;5058809;28;20681;-66
2023/06/28 08:27:36;;;;;;;8.67;1.67;;;20.90;99.90;;;;;;5047880;28;20183;-66
2023/06/28 08:30:01;;;;;;;3.83;1.87;;;21.00;99.90;;;;;;5048613;28;20348;-68
2023/06/28 08:32:27;;;;;;;3.23;2.00;;;21.00;99.90;;;;;;5048377;28;20387;-66
2023/06/28 08:34:53;;;;;;;2.03;1.43;;;20.80;99.90;;;;;;5048374;28;20339;-64
2023/06/28 08:37:18;;;;;;;4.33;2.00;;;20.70;99.90;;;;;;5066354;28;20374;-64
2023/06/28 08:39:44;;;;;;;9.63;1.93;;;20.50;99.90;;;;;;5067637;28;20383;-64
2023/06/28 08:42:10;;;;;;;2.87;1.43;;;20.50;99.90;;;;;;5068060;28;20155;-65
2023/06/28 08:44:40;;;;;;;2.80;1.67;;;20.40;99.90;;;;;;5059199;28;20183;-64
2023/06/28 08:47:07;;;;;;;3.50;1.50;;;20.50;99.90;;;;;;5048442;28;20441;-67
2023/06/28 08:49:33;;;;;;;3.53;1.87;;;20.70;99.90;;;;;;5048492;28;20546;-68
2023/06/28 08:51:59;;;;;;;3.17;2.53;;;20.90;99.90;;;;;;5047355;28;20585;-66
2023/06/28 08:54:28;;;;;;;2.33;1.70;;;21.20;99.90;;;;;;5048062;28;20542;-67
2023/06/28 08:56:58;;;;;;;3.50;1.50;;;21.20;99.90;;;;;;5063296;28;20420;-67
2023/06/28 08:59:24;;;;;;;6.60;1.87;;;21.10;99.90;;;;;;5068115;28;20625;-65
2023/06/28 09:01:55;;;;;;;4.03;1.43;;;21.00;99.90;;;;;;5067692;28;20390;-67
2023/06/28 09:04:26;;;;;;;5.23;2.10;;;21.10;99.90;;;;;;5068209;28;20488;-67
2023/06/28 09:06:52;;;;;;;4.63;1.50;;;21.30;99.90;;;;;;5067808;28;20518;-66
2023/06/28 09:09:18;;;;;;;3.20;1.70;;;21.50;99.90;;;;;;5068306;28;20521;-67
2023/06/28 09:11:45;;;;;;;3.83;1.63;;;21.90;99.90;;;;;;5055406;28;20438;-67
2023/06/28 09:14:11;;;;;;;3.23;1.43;;;22.10;99.90;;;;;;5048323;28;20445;-67
2023/06/28 09:16:37;;;;;;;2.73;1.50;;;22.00;99.90;;;;;;5048050;28;20382;-67
2023/06/28 09:19:02;;;;;;;3.43;1.70;;;22.00;99.90;;;;;;5054702;28;20428;-66
2023/06/28 09:21:29;;;;;;;1.83;1.37;;;22.30;99.90;;;;;;5067208;28;20153;-66
2023/06/28 09:23:59;;;;;;;3.50;1.50;;;22.40;99.90;;;;;;5059001;28;20206;-68
2023/06/28 09:26:32;;;;;;;2.93;2.43;;;22.70;99.90;;;;;;5046744;28;20659;-69
2023/06/28 09:29:00;;;;;;;3.30;1.90;;;22.80;99.90;;;;;;5047177;28;20394;-65
2023/06/28 09:31:31;;;;;;;4.57;1.83;;;23.10;99.90;;;;;;5046332;28;20378;-66
2023/06/28 09:33:57;;;;;;;1.77;1.60;;;23.30;99.90;;;;;;5046838;28;20394;-69
2023/06/28 09:36:23;;;;;;;2.27;1.83;;;23.10;99.90;;;;;;5046863;28;20397;-67
2023/06/28 09:38:49;;;;;;;1.97;1.40;;;22.70;99.90;;;;;;5046494;28;20178;-68
2023/06/28 09:41:15;;;;;;;3.40;1.93;;;22.50;99.90;;;;;;5045076;28;20222;-67
2023/06/28 09:43:41;;;;;;;8.03;1.57;;;22.20;99.90;;;;;;5046646;28;20448;-68
2023/06/28 09:46:12;;;;;;;3.17;2.30;;;22.50;99.90;;;;;;5045888;28;20375;-68
2023/06/28 09:48:44;;;;;;;1.97;1.40;;;23.00;99.90;;;;;;5046833;28;20647;-67
2023/06/28 09:51:11;;;;;;;3.33;1.23;;;23.50;99.90;;;;;;5052485;28;20401;-66
2023/06/28 09:53:54;;;;;;;3.47;1.80;;;23.70;99.90;;;;;;5066599;28;20448;-67
2023/06/28 09:56:22;;;;;;;5.20;1.50;;;24.30;99.90;;;;;;5066789;28;20370;-65
2023/06/28 09:58:48;;;;;;;2.77;2.00;;;24.90;99.90;;;;;;5066655;28;20400;-65
2023/06/28 10:01:17;;;;;;;1.83;1.40;;;24.80;99.90;;;;;;5052087;28;20402;-65
2023/06/28 10:03:44;;;;;;;2.80;1.40;;;24.30;99.90;;;;;;5046725;28;20378;-65
2023/06/28 10:06:12;;;;;;;3.83;1.90;;;23.90;99.90;;;;;;5055527;28;20409;-72
2023/06/28 10:08:39;;;;;;;9.80;1.27;;;23.90;99.90;;;;;;5066611;28;20370;-63
2023/06/28 10:11:12;;;;;;;1.57;1.10;;;24.60;99.90;;;;;;5065502;28;20389;-64
2023/06/28 10:13:41;;;;;;;2.80;1.30;;;25.00;99.90;;;;;;5066416;28;20406;-65
2023/06/28 10:16:14;;;;;;;4.90;1.60;;;25.30;99.90;;;;;;5065773;28;20397;-66
2023/06/28 10:18:41;;;;;;;2.53;1.10;;;25.60;99.90;;;;;;5056750;28;20394;-65
2023/06/28 10:21:08;;;;;;;4.17;1.60;;;25.80;99.90;;;;;;5045788;28;20380;-68
2023/06/28 10:23:35;;;;;;;3.17;1.87;;;25.40;99.90;;;;;;5046599;28;20507;-70
2023/06/28 10:26:05;;;;;;;7.10;1.40;;;24.70;99.90;;;;;;5045621;28;20461;-65
2023/06/28 10:28:35;;;;;;;3.93;1.30;;;24.90;99.90;;;;;;5046324;28;20638;-67
2023/06/28 10:31:03;;;;;;;1.80;1.30;;;25.40;99.90;;;;;;5060318;28;20601;-65
2023/06/28 10:33:31;;;;;;;1.40;0.97;;;26.20;99.90;;;;;;5050929;28;20485;-67
2023/06/28 10:36:01;;;;;;;3.47;1.70;;;26.90;99.90;;;;;;5047068;28;20374;-71
2023/06/28 10:38:43;;;;;;;2.43;1.20;;;27.60;99.90;;;;;;5047288;28;20389;-67
2023/06/28 10:41:12;;;;;;;2.93;1.20;;;28.10;99.90;;;;;;5046393;28;20390;-68
2023/06/28 10:43:38;;;;;;;1.73;1.50;;;27.50;99.90;;;;;;5047039;28;20406;-66
2023/06/28 10:46:23;;;;;;;2.83;1.17;;;27.20;99.90;;;;;;5055366;28;20445;-68
2023/06/28 10:48:56;;;;;;;2.13;1.43;;;27.30;99.90;;;;;;5067072;28;20151;-68
2023/06/28 10:51:25;;;;;;;6.63;1.87;;;27.80;99.90;;;;;;5069401;28;20390;-68
2023/06/28 10:53:53;;;;;;;5.10;1.40;;;28.40;99.90;;;;;;5069977;28;20660;-67
2023/06/28 10:56:20;;;;;;;2.63;1.00;;;28.40;99.90;;;;;;5070386;28;20377;-69
2023/06/28 10:58:52;;;;;;;3.23;1.40;;;28.50;99.90;;;;;;5069839;28;20365;-66
2023/06/28 11:01:53;;;;;;;6.00;1.97;;;28.40;99.90;;;;;;5069856;28;20389;-67
2023/06/28 11:04:21;;;;;;;2.60;1.10;;;28.60;99.90;;;;;;5070588;28;20555;-68
2023/06/28 11:07:08;;;;;;;4.53;1.43;;;28.80;99.90;;;;;;5070134;28;20433;-68
2023/06/28 11:09:34;;;;;;;5.10;1.50;;;28.80;99.90;;;;;;5069366;28;20386;-68
2023/06/28 11:12:00;;;;;;;1.87;1.47;;;28.60;99.90;;;;;;5069753;28;20447;-67
2023/06/28 11:14:29;;;;;;;18.43;4.03;;;28.90;99.90;;;;;;5051373;28;20422;-68
2023/06/28 11:17:06;;;;;;;6.37;1.60;;;28.20;99.90;;;;;;5050372;28;20390;-65
2023/06/28 11:19:32;;;;;;;1.73;1.27;;;27.40;99.90;;;;;;5050327;28;20468;-67
2023/06/28 11:22:02;;;;;;;4.50;1.43;;;27.10;99.90;;;;;;5049439;28;20541;-66
2023/06/28 11:24:40;;;;;;;2.20;1.60;;;27.60;99.90;;;;;;5066619;28;20517;-69
2023/06/28 11:27:21;;;;;;;1.60;1.40;;;28.20;99.90;;;;;;5057206;28;20449;-70
2023/06/28 11:29:58;;;;;;;2.53;1.33;;;27.90;99.90;;;;;;5050028;28;20537;-69
2023/06/28 11:32:32;;;;;;;3.13;1.40;;;28.00;99.90;;;;;;5049329;28;20373;-68
2023/06/28 11:34:59;;;;;;;1.40;1.30;;;28.50;99.90;;;;;;5049985;28;20465;-69
2023/06/28 11:37:26;;;;;;;2.57;1.47;;;28.90;99.90;;;;;;5050098;28;20378;-67
2023/06/28 11:39:53;;;;;;;3.93;1.87;;;28.70;99.90;;;;;;5049917;28;20668;-69
2023/06/28 11:42:19;;;;;;;3.20;2.00;;;28.40;99.90;;;;;;5069438;28;20387;-68
2023/06/28 11:44:47;;;;;;;2.53;1.70;;;28.20;99.90;;;;;;5069695;28;20398;-68
2023/06/28 11:47:15;;;;;;;3.60;1.77;;;28.60;99.90;;;;;;5068570;28;20429;-69
2023/06/28 11:49:41;;;;;;;4.47;1.50;;;29.10;99.90;;;;;;5068435;28;20372;-68
2023/06/28 11:52:08;;;;;;;2.90;1.30;;;29.60;99.90;;;;;;5068090;28;20374;-69
2023/06/28 11:54:34;;;;;;;4.70;1.23;;;29.80;99.90;;;;;;5067793;28;20425;-67
2023/06/28 11:57:01;;;;;;;3.40;1.50;;;30.10;99.90;;;;;;5068758;28;20389;-68
2023/06/28 11:59:29;;;;;;;4.30;1.70;;;30.40;99.90;;;;;;5068361;28;20537;-70
2023/06/28 12:02:05;;;;;;;2.20;1.60;;;30.80;99.90;;;;;;5065846;28;20456;-69
2023/06/28 12:04:33;;;;;;;3.73;1.60;;;30.80;99.90;;;;;;5048279;28;20425;-71
2023/06/28 12:07:01;;;;;;;2.60;1.40;;;31.30;99.90;;;;;;5062229;28;20433;-69
2023/06/28 12:09:32;;;;;;;3.10;1.23;;;31.80;99.90;;;;;;5068549;28;20384;-68
2023/06/28 12:12:01;;;;;;;2.03;1.30;;;32.00;99.90;;;;;;5067609;28;20558;-68
2023/06/28 12:14:28;;;;;;;2.50;1.90;;;32.00;99.90;;;;;;5068532;28;20386;-69
2023/06/28 12:16:54;;;;;;;3.97;1.70;;;31.80;99.90;;;;;;5066974;28;20614;-68
2023/06/28 12:19:24;;;;;;;2.70;1.30;;;31.30;99.90;;;;;;5068349;28;20370;-68
2023/06/28 12:21:53;;;;;;;4.50;2.03;;;30.30;99.90;;;;;;5067605;28;20366;-68
2023/06/28 12:24:24;;;;;;;2.27;1.50;;;29.60;99.90;;;;;;5067873;28;20390;-67
2023/06/28 12:27:08;;;;;;;4.80;1.40;;;29.00;99.90;;;;;;5066013;28;20527;-68
2023/06/28 12:29:37;;;;;;;3.83;1.60;;;28.10;99.90;;;;;;5059870;28;20473;-68
2023/06/28 12:32:11;;;;;;;2.90;1.50;;;27.40;99.90;;;;;;5047450;28;20362;-68
2023/06/28 12:34:38;;;;;;;3.13;1.20;;;26.60;99.90;;;;;;5047778;28;20437;-68
2023/06/28 12:37:08;;;;;;;4.80;1.53;;;26.30;99.90;;;;;;5055832;28;20621;-68
2023/06/28 12:39:36;;;;;;;3.10;1.37;;;26.10;99.90;;;;;;5067968;28;20388;-67
2023/06/28 12:42:08;;;;;;;2.33;1.20;;;26.70;99.90;;;;;;5065014;28;20401;-67
2023/06/28 12:44:53;;;;;;;2.90;1.70;;;27.70;99.90;;;;;;5066346;28;20711;-67
2023/06/28 12:47:23;;;;;;;2.43;1.23;;;28.50;99.90;;;;;;5065657;28;20447;-67
2023/06/28 12:49:51;;;;;;;2.13;1.47;;;28.80;99.90;;;;;;5067577;28;20397;-68